sensor_id;sensor_type;location;lat;lon;timestamp;P1;durP1;ratioP1;P2;durP2;ratioP2
59756;SDS011;45631;51.962;5.974;2022-09-03T00:00:19;6.45;;;2.33;;
59756;SDS011;45631;51.962;5.974;2022-09-03T00:02:51;5.15;;;2.10;;
59756;SDS011;45631;51.962;5.974;2022-09-03T00:05:28;5.20;;;2.08;;
59756;SDS011;45631;51.962;5.974;2022-09-03T00:08:05;6.50;;;2.05;;
59756;SDS011;45631;51.962;5.974;2022-09-03T00:10:41;5.63;;;1.98;;
59756;SDS011;45631;51.962;5.974;2022-09-03T00:13:14;4.80;;;2.10;;
59756;SDS011;45631;51.962;5.974;2022-09-03T00:15:46;3.92;;;1.90;;
59756;SDS011;45631;51.962;5.974;2022-09-03T00:18:15;8.52;;;2.40;;
59756;SDS011;45631;51.962;5.974;2022-09-03T00:23:20;4.95;;;2.00;;
59756;SDS011;45631;51.962;5.974;2022-09-03T00:25:51;6.53;;;2.22;;
59756;SDS011;45631;51.962;5.974;2022-09-03T00:28:25;6.50;;;2.22;;
59756;SDS011;45631;51.962;5.974;2022-09-03T00:31:03;7.10;;;2.63;;
59756;SDS011;45631;51.962;5.974;2022-09-03T00:33:37;5.57;;;2.20;;
59756;SDS011;45631;51.962;5.974;2022-09-03T00:36:10;6.97;;;2.35;;
59756;SDS011;45631;51.962;5.974;2022-09-03T00:38:44;8.32;;;2.47;;
59756;SDS011;45631;51.962;5.974;2022-09-03T00:41:16;7.32;;;2.58;;
59756;SDS011;45631;51.962;5.974;2022-09-03T00:44:01;6.90;;;2.78;;
59756;SDS011;45631;51.962;5.974;2022-09-03T00:46:41;7.43;;;2.85;;
59756;SDS011;45631;51.962;5.974;2022-09-03T00:49:23;9.45;;;2.90;;
59756;SDS011;45631;51.962;5.974;2022-09-03T00:52:05;9.75;;;2.67;;
59756;SDS011;45631;51.962;5.974;2022-09-03T00:54:45;6.75;;;2.33;;
59756;SDS011;45631;51.962;5.974;2022-09-03T00:57:25;5.57;;;2.20;;
59756;SDS011;45631;51.962;5.974;2022-09-03T01:00:03;6.50;;;2.10;;
59756;SDS011;45631;51.962;5.974;2022-09-03T01:02:38;6.00;;;2.20;;
59756;SDS011;45631;51.962;5.974;2022-09-03T01:05:20;7.65;;;2.22;;
59756;SDS011;45631;51.962;5.974;2022-09-03T01:08:11;6.82;;;2.65;;
59756;SDS011;45631;51.962;5.974;2022-09-03T01:10:56;8.75;;;2.80;;
59756;SDS011;45631;51.962;5.974;2022-09-03T01:13:30;6.65;;;2.38;;
59756;SDS011;45631;51.962;5.974;2022-09-03T01:16:08;8.32;;;2.63;;
59756;SDS011;45631;51.962;5.974;2022-09-03T01:18:43;9.05;;;2.55;;
59756;SDS011;45631;51.962;5.974;2022-09-03T01:21:29;5.65;;;2.17;;
59756;SDS011;45631;51.962;5.974;2022-09-03T01:24:17;7.03;;;2.17;;
59756;SDS011;45631;51.962;5.974;2022-09-03T01:27:20;8.73;;;3.00;;
59756;SDS011;45631;51.962;5.974;2022-09-03T01:30:01;9.75;;;3.05;;
59756;SDS011;45631;51.962;5.974;2022-09-03T01:32:34;9.73;;;3.40;;
59756;SDS011;45631;51.962;5.974;2022-09-03T01:35:10;8.65;;;3.78;;
59756;SDS011;45631;51.962;5.974;2022-09-03T01:37:51;9.90;;;3.75;;
59756;SDS011;45631;51.962;5.974;2022-09-03T01:40:29;9.60;;;3.67;;
59756;SDS011;45631;51.962;5.974;2022-09-03T01:43:11;8.77;;;2.95;;
59756;SDS011;45631;51.962;5.974;2022-09-03T01:45:52;9.30;;;3.22;;
59756;SDS011;45631;51.962;5.974;2022-09-03T01:48:29;7.20;;;2.80;;
59756;SDS011;45631;51.962;5.974;2022-09-03T01:51:09;9.35;;;3.22;;
59756;SDS011;45631;51.962;5.974;2022-09-03T01:54:01;7.57;;;3.17;;
59756;SDS011;45631;51.962;5.974;2022-09-03T01:56:52;9.68;;;3.22;;
59756;SDS011;45631;51.962;5.974;2022-09-03T02:00:03;6.78;;;2.95;;
59756;SDS011;45631;51.962;5.974;2022-09-03T02:02:35;7.25;;;2.95;;
59756;SDS011;45631;51.962;5.974;2022-09-03T02:05:04;7.10;;;3.03;;
59756;SDS011;45631;51.962;5.974;2022-09-03T02:07:35;7.40;;;3.03;;
59756;SDS011;45631;51.962;5.974;2022-09-03T02:10:06;6.55;;;2.95;;
59756;SDS011;45631;51.962;5.974;2022-09-03T02:12:36;8.20;;;3.10;;
59756;SDS011;45631;51.962;5.974;2022-09-03T02:15:09;11.35;;;3.05;;
59756;SDS011;45631;51.962;5.974;2022-09-03T02:17:41;7.75;;;2.80;;
59756;SDS011;45631;51.962;5.974;2022-09-03T02:20:14;9.15;;;3.28;;
59756;SDS011;45631;51.962;5.974;2022-09-03T02:22:46;10.80;;;3.30;;
59756;SDS011;45631;51.962;5.974;2022-09-03T02:25:16;9.15;;;3.30;;
59756;SDS011;45631;51.962;5.974;2022-09-03T02:27:44;9.90;;;3.17;;
59756;SDS011;45631;51.962;5.974;2022-09-03T02:30:15;6.60;;;2.92;;
59756;SDS011;45631;51.962;5.974;2022-09-03T02:32:45;9.65;;;3.25;;
59756;SDS011;45631;51.962;5.974;2022-09-03T02:35:13;7.00;;;3.13;;
59756;SDS011;45631;51.962;5.974;2022-09-03T02:37:41;9.50;;;3.20;;
59756;SDS011;45631;51.962;5.974;2022-09-03T02:40:09;9.18;;;3.28;;
59756;SDS011;45631;51.962;5.974;2022-09-03T02:42:37;7.25;;;3.10;;
59756;SDS011;45631;51.962;5.974;2022-09-03T02:45:08;7.10;;;2.83;;
59756;SDS011;45631;51.962;5.974;2022-09-03T02:47:45;8.68;;;2.92;;
59756;SDS011;45631;51.962;5.974;2022-09-03T02:50:18;7.13;;;2.92;;
59756;SDS011;45631;51.962;5.974;2022-09-03T02:52:46;6.53;;;3.03;;
59756;SDS011;45631;51.962;5.974;2022-09-03T02:55:15;8.43;;;3.05;;
59756;SDS011;45631;51.962;5.974;2022-09-03T02:57:45;5.68;;;2.58;;
59756;SDS011;45631;51.962;5.974;2022-09-03T03:00:13;6.63;;;2.50;;
59756;SDS011;45631;51.962;5.974;2022-09-03T03:02:41;5.50;;;2.65;;
59756;SDS011;45631;51.962;5.974;2022-09-03T03:05:14;7.55;;;2.50;;
59756;SDS011;45631;51.962;5.974;2022-09-03T03:07:48;6.97;;;2.33;;
59756;SDS011;45631;51.962;5.974;2022-09-03T03:10:16;5.65;;;2.42;;
59756;SDS011;45631;51.962;5.974;2022-09-03T03:12:44;5.50;;;2.40;;
59756;SDS011;45631;51.962;5.974;2022-09-03T03:15:12;5.55;;;2.28;;
59756;SDS011;45631;51.962;5.974;2022-09-03T03:17:41;5.65;;;2.50;;
59756;SDS011;45631;51.962;5.974;2022-09-03T03:20:09;6.47;;;2.25;;
59756;SDS011;45631;51.962;5.974;2022-09-03T03:22:40;8.48;;;2.80;;
59756;SDS011;45631;51.962;5.974;2022-09-03T03:25:08;6.57;;;2.78;;
59756;SDS011;45631;51.962;5.974;2022-09-03T03:27:36;11.55;;;3.25;;
59756;SDS011;45631;51.962;5.974;2022-09-03T03:30:08;7.32;;;2.92;;
59756;SDS011;45631;51.962;5.974;2022-09-03T03:32:37;9.13;;;3.30;;
59756;SDS011;45631;51.962;5.974;2022-09-03T03:35:06;9.18;;;3.60;;
59756;SDS011;45631;51.962;5.974;2022-09-03T03:37:34;9.57;;;3.33;;
59756;SDS011;45631;51.962;5.974;2022-09-03T03:40:04;11.75;;;3.85;;
59756;SDS011;45631;51.962;5.974;2022-09-03T03:42:34;10.70;;;3.47;;
59756;SDS011;45631;51.962;5.974;2022-09-03T03:45:02;14.27;;;3.67;;
59756;SDS011;45631;51.962;5.974;2022-09-03T03:47:30;10.15;;;3.85;;
59756;SDS011;45631;51.962;5.974;2022-09-03T03:49:59;8.70;;;3.50;;
59756;SDS011;45631;51.962;5.974;2022-09-03T03:52:28;9.02;;;3.50;;
59756;SDS011;45631;51.962;5.974;2022-09-03T03:54:56;7.55;;;3.15;;
59756;SDS011;45631;51.962;5.974;2022-09-03T03:57:28;8.32;;;3.33;;
59756;SDS011;45631;51.962;5.974;2022-09-03T03:59:58;7.82;;;3.15;;
59756;SDS011;45631;51.962;5.974;2022-09-03T04:02:29;6.90;;;2.65;;
59756;SDS011;45631;51.962;5.974;2022-09-03T04:05:01;5.75;;;2.40;;
59756;SDS011;45631;51.962;5.974;2022-09-03T04:07:29;6.65;;;2.40;;
59756;SDS011;45631;51.962;5.974;2022-09-03T04:09:59;6.25;;;2.47;;
59756;SDS011;45631;51.962;5.974;2022-09-03T04:12:28;6.60;;;2.22;;
59756;SDS011;45631;51.962;5.974;2022-09-03T04:14:56;5.53;;;2.10;;
59756;SDS011;45631;51.962;5.974;2022-09-03T04:17:26;3.72;;;1.90;;
59756;SDS011;45631;51.962;5.974;2022-09-03T04:19:54;6.93;;;2.10;;
59756;SDS011;45631;51.962;5.974;2022-09-03T04:22:22;5.25;;;2.15;;
59756;SDS011;45631;51.962;5.974;2022-09-03T04:24:50;5.35;;;2.38;;
59756;SDS011;45631;51.962;5.974;2022-09-03T04:27:19;5.03;;;2.13;;
59756;SDS011;45631;51.962;5.974;2022-09-03T04:29:48;6.90;;;2.42;;
59756;SDS011;45631;51.962;5.974;2022-09-03T04:32:16;6.22;;;2.72;;
59756;SDS011;45631;51.962;5.974;2022-09-03T04:35:01;7.05;;;2.72;;
59756;SDS011;45631;51.962;5.974;2022-09-03T04:37:30;8.32;;;3.05;;
59756;SDS011;45631;51.962;5.974;2022-09-03T04:39:59;11.68;;;3.20;;
59756;SDS011;45631;51.962;5.974;2022-09-03T04:42:27;8.38;;;2.92;;
59756;SDS011;45631;51.962;5.974;2022-09-03T04:44:56;6.57;;;2.50;;
59756;SDS011;45631;51.962;5.974;2022-09-03T04:47:25;4.85;;;2.35;;
59756;SDS011;45631;51.962;5.974;2022-09-03T04:49:54;7.20;;;2.33;;
59756;SDS011;45631;51.962;5.974;2022-09-03T04:52:22;6.18;;;2.40;;
59756;SDS011;45631;51.962;5.974;2022-09-03T04:54:50;10.93;;;2.08;;
59756;SDS011;45631;51.962;5.974;2022-09-03T04:57:18;5.10;;;1.80;;
59756;SDS011;45631;51.962;5.974;2022-09-03T04:59:46;4.57;;;2.10;;
59756;SDS011;45631;51.962;5.974;2022-09-03T05:02:16;4.68;;;2.10;;
59756;SDS011;45631;51.962;5.974;2022-09-03T05:04:47;5.47;;;2.08;;
59756;SDS011;45631;51.962;5.974;2022-09-03T05:07:15;5.07;;;2.20;;
59756;SDS011;45631;51.962;5.974;2022-09-03T05:09:45;5.75;;;2.20;;
59756;SDS011;45631;51.962;5.974;2022-09-03T05:12:14;3.63;;;1.83;;
59756;SDS011;45631;51.962;5.974;2022-09-03T05:14:42;3.72;;;1.90;;
59756;SDS011;45631;51.962;5.974;2022-09-03T05:17:10;6.00;;;1.98;;
59756;SDS011;45631;51.962;5.974;2022-09-03T05:19:39;4.78;;;1.80;;
59756;SDS011;45631;51.962;5.974;2022-09-03T05:22:08;3.63;;;1.80;;
59756;SDS011;45631;51.962;5.974;2022-09-03T05:24:36;4.32;;;1.65;;
59756;SDS011;45631;51.962;5.974;2022-09-03T05:27:04;4.57;;;1.80;;
59756;SDS011;45631;51.962;5.974;2022-09-03T05:29:33;5.70;;;1.70;;
59756;SDS011;45631;51.962;5.974;2022-09-03T05:32:01;3.55;;;1.77;;
59756;SDS011;45631;51.962;5.974;2022-09-03T05:34:30;5.38;;;1.80;;
59756;SDS011;45631;51.962;5.974;2022-09-03T05:36:59;6.05;;;1.80;;
59756;SDS011;45631;51.962;5.974;2022-09-03T05:39:27;4.97;;;1.92;;
59756;SDS011;45631;51.962;5.974;2022-09-03T05:41:55;4.40;;;1.80;;
59756;SDS011;45631;51.962;5.974;2022-09-03T05:44:23;5.50;;;1.92;;
59756;SDS011;45631;51.962;5.974;2022-09-03T05:46:52;4.32;;;1.85;;
59756;SDS011;45631;51.962;5.974;2022-09-03T05:49:20;5.85;;;1.80;;
59756;SDS011;45631;51.962;5.974;2022-09-03T05:51:48;4.45;;;1.77;;
59756;SDS011;45631;51.962;5.974;2022-09-03T05:54:18;2.85;;;1.67;;
59756;SDS011;45631;51.962;5.974;2022-09-03T05:56:46;5.22;;;1.90;;
59756;SDS011;45631;51.962;5.974;2022-09-03T05:59:15;5.47;;;2.08;;
59756;SDS011;45631;51.962;5.974;2022-09-03T06:01:43;4.72;;;1.92;;
59756;SDS011;45631;51.962;5.974;2022-09-03T06:04:17;5.13;;;2.08;;
59756;SDS011;45631;51.962;5.974;2022-09-03T06:06:46;5.05;;;2.00;;
59756;SDS011;45631;51.962;5.974;2022-09-03T06:09:15;5.97;;;2.08;;
59756;SDS011;45631;51.962;5.974;2022-09-03T06:11:48;4.10;;;2.05;;
59756;SDS011;45631;51.962;5.974;2022-09-03T06:14:18;6.00;;;2.10;;
59756;SDS011;45631;51.962;5.974;2022-09-03T06:16:47;4.80;;;2.03;;
59756;SDS011;45631;51.962;5.974;2022-09-03T06:19:18;4.35;;;1.83;;
59756;SDS011;45631;51.962;5.974;2022-09-03T06:21:46;7.15;;;2.08;;
59756;SDS011;45631;51.962;5.974;2022-09-03T06:24:15;6.30;;;2.15;;
59756;SDS011;45631;51.962;5.974;2022-09-03T06:26:53;8.82;;;2.58;;
59756;SDS011;45631;51.962;5.974;2022-09-03T06:29:21;5.93;;;2.17;;
59756;SDS011;45631;51.962;5.974;2022-09-03T06:31:50;4.72;;;1.90;;
59756;SDS011;45631;51.962;5.974;2022-09-03T06:34:18;4.00;;;2.10;;
59756;SDS011;45631;51.962;5.974;2022-09-03T06:36:48;4.00;;;2.20;;
59756;SDS011;45631;51.962;5.974;2022-09-03T06:39:21;4.95;;;2.30;;
59756;SDS011;45631;51.962;5.974;2022-09-03T06:41:50;5.75;;;2.22;;
59756;SDS011;45631;51.962;5.974;2022-09-03T06:44:18;4.25;;;2.10;;
59756;SDS011;45631;51.962;5.974;2022-09-03T06:46:47;6.88;;;2.20;;
59756;SDS011;45631;51.962;5.974;2022-09-03T06:49:15;4.38;;;2.10;;
59756;SDS011;45631;51.962;5.974;2022-09-03T06:51:45;6.03;;;2.55;;
59756;SDS011;45631;51.962;5.974;2022-09-03T06:54:13;5.35;;;1.77;;
59756;SDS011;45631;51.962;5.974;2022-09-03T06:56:43;5.45;;;2.00;;
59756;SDS011;45631;51.962;5.974;2022-09-03T06:59:12;7.20;;;1.83;;
59756;SDS011;45631;51.962;5.974;2022-09-03T07:01:42;3.45;;;1.67;;
59756;SDS011;45631;51.962;5.974;2022-09-03T07:04:12;5.80;;;1.80;;
59756;SDS011;45631;51.962;5.974;2022-09-03T07:06:45;5.88;;;2.08;;
59756;SDS011;45631;51.962;5.974;2022-09-03T07:09:13;4.22;;;1.48;;
59756;SDS011;45631;51.962;5.974;2022-09-03T07:11:45;9.02;;;1.88;;
59756;SDS011;45631;51.962;5.974;2022-09-03T07:14:14;6.15;;;1.77;;
59756;SDS011;45631;51.962;5.974;2022-09-03T07:16:43;3.03;;;1.50;;
59756;SDS011;45631;51.962;5.974;2022-09-03T07:19:12;4.53;;;1.70;;
59756;SDS011;45631;51.962;5.974;2022-09-03T07:21:40;3.45;;;1.58;;
59756;SDS011;45631;51.962;5.974;2022-09-03T07:24:14;3.15;;;1.50;;
59756;SDS011;45631;51.962;5.974;2022-09-03T07:26:45;5.75;;;1.80;;
59756;SDS011;45631;51.962;5.974;2022-09-03T07:29:14;3.70;;;1.70;;
59756;SDS011;45631;51.962;5.974;2022-09-03T07:31:46;3.97;;;1.55;;
59756;SDS011;45631;51.962;5.974;2022-09-03T07:34:17;5.70;;;1.73;;
59756;SDS011;45631;51.962;5.974;2022-09-03T07:36:47;3.53;;;1.75;;
59756;SDS011;45631;51.962;5.974;2022-09-03T07:39:17;4.40;;;1.70;;
59756;SDS011;45631;51.962;5.974;2022-09-03T07:41:47;6.00;;;1.88;;
59756;SDS011;45631;51.962;5.974;2022-09-03T07:44:16;5.43;;;2.20;;
59756;SDS011;45631;51.962;5.974;2022-09-03T07:46:46;4.00;;;1.50;;
59756;SDS011;45631;51.962;5.974;2022-09-03T07:49:17;5.10;;;1.70;;
59756;SDS011;45631;51.962;5.974;2022-09-03T07:51:47;4.47;;;1.88;;
59756;SDS011;45631;51.962;5.974;2022-09-03T07:54:18;4.68;;;1.38;;
59756;SDS011;45631;51.962;5.974;2022-09-03T07:56:48;2.13;;;1.30;;
59756;SDS011;45631;51.962;5.974;2022-09-03T07:59:16;3.13;;;1.50;;
59756;SDS011;45631;51.962;5.974;2022-09-03T08:01:45;4.68;;;1.42;;
59756;SDS011;45631;51.962;5.974;2022-09-03T08:04:13;4.50;;;1.38;;
59756;SDS011;45631;51.962;5.974;2022-09-03T08:06:41;4.93;;;1.40;;
59756;SDS011;45631;51.962;5.974;2022-09-03T08:09:10;5.78;;;1.42;;
59756;SDS011;45631;51.962;5.974;2022-09-03T08:11:40;4.72;;;1.50;;
59756;SDS011;45631;51.962;5.974;2022-09-03T08:14:12;3.95;;;1.38;;
59756;SDS011;45631;51.962;5.974;2022-09-03T08:16:42;3.78;;;1.52;;
59756;SDS011;45631;51.962;5.974;2022-09-03T08:19:13;6.15;;;1.83;;
59756;SDS011;45631;51.962;5.974;2022-09-03T08:21:43;5.22;;;1.30;;
59756;SDS011;45631;51.962;5.974;2022-09-03T08:24:13;2.92;;;1.23;;
59756;SDS011;45631;51.962;5.974;2022-09-03T08:26:42;4.20;;;1.20;;
59756;SDS011;45631;51.962;5.974;2022-09-03T08:29:18;4.47;;;1.15;;
59756;SDS011;45631;51.962;5.974;2022-09-03T08:31:47;3.75;;;1.42;;
59756;SDS011;45631;51.962;5.974;2022-09-03T08:34:15;1.95;;;1.13;;
59756;SDS011;45631;51.962;5.974;2022-09-03T08:36:43;5.45;;;1.58;;
59756;SDS011;45631;51.962;5.974;2022-09-03T08:39:13;5.40;;;1.50;;
59756;SDS011;45631;51.962;5.974;2022-09-03T08:47:19;3.90;;;1.40;;
59756;SDS011;45631;51.962;5.974;2022-09-03T08:49:51;4.95;;;1.38;;
59756;SDS011;45631;51.962;5.974;2022-09-03T08:52:24;5.55;;;1.10;;
59756;SDS011;45631;51.962;5.974;2022-09-03T08:54:58;3.60;;;1.20;;
59756;SDS011;45631;51.962;5.974;2022-09-03T08:57:31;2.00;;;1.15;;
59756;SDS011;45631;51.962;5.974;2022-09-03T09:00:09;3.70;;;1.33;;
59756;SDS011;45631;51.962;5.974;2022-09-03T09:02:40;4.13;;;1.50;;
59756;SDS011;45631;51.962;5.974;2022-09-03T09:05:18;4.22;;;1.38;;
59756;SDS011;45631;51.962;5.974;2022-09-03T09:07:54;2.47;;;1.15;;
59756;SDS011;45631;51.962;5.974;2022-09-03T09:10:31;2.80;;;1.40;;
59756;SDS011;45631;51.962;5.974;2022-09-03T09:13:12;3.92;;;1.30;;
59756;SDS011;45631;51.962;5.974;2022-09-03T09:15:51;4.00;;;1.25;;
59756;SDS011;45631;51.962;5.974;2022-09-03T09:18:32;3.30;;;1.13;;
59756;SDS011;45631;51.962;5.974;2022-09-03T09:21:12;3.55;;;1.23;;
59756;SDS011;45631;51.962;5.974;2022-09-03T09:23:49;4.93;;;1.20;;
59756;SDS011;45631;51.962;5.974;2022-09-03T09:26:20;4.93;;;1.27;;
59756;SDS011;45631;51.962;5.974;2022-09-03T09:28:50;2.55;;;1.08;;
59756;SDS011;45631;51.962;5.974;2022-09-03T09:33:50;3.45;;;1.10;;
59756;SDS011;45631;51.962;5.974;2022-09-03T09:36:18;5.57;;;1.10;;
59756;SDS011;45631;51.962;5.974;2022-09-03T09:38:48;3.65;;;1.13;;
59756;SDS011;45631;51.962;5.974;2022-09-03T09:41:16;4.10;;;1.48;;
59756;SDS011;45631;51.962;5.974;2022-09-03T09:43:58;4.40;;;1.38;;
59756;SDS011;45631;51.962;5.974;2022-09-03T09:46:30;5.68;;;1.40;;
59756;SDS011;45631;51.962;5.974;2022-09-03T09:49:02;5.43;;;1.40;;
59756;SDS011;45631;51.962;5.974;2022-09-03T09:51:59;3.30;;;1.30;;
59756;SDS011;45631;51.962;5.974;2022-09-03T09:54:29;2.97;;;1.00;;
59756;SDS011;45631;51.962;5.974;2022-09-03T09:56:58;4.30;;;1.10;;
59756;SDS011;45631;51.962;5.974;2022-09-03T09:59:29;3.80;;;1.15;;
59756;SDS011;45631;51.962;5.974;2022-09-03T10:02:06;2.88;;;1.20;;
59756;SDS011;45631;51.962;5.974;2022-09-03T10:04:48;3.35;;;1.25;;
59756;SDS011;45631;51.962;5.974;2022-09-03T10:07:22;4.15;;;1.40;;
59756;SDS011;45631;51.962;5.974;2022-09-03T10:09:58;4.40;;;1.30;;
59756;SDS011;45631;51.962;5.974;2022-09-03T10:12:31;3.65;;;1.25;;
59756;SDS011;45631;51.962;5.974;2022-09-03T10:15:17;3.67;;;1.20;;
59756;SDS011;45631;51.962;5.974;2022-09-03T10:17:56;1.95;;;1.17;;
59756;SDS011;45631;51.962;5.974;2022-09-03T10:20:32;2.35;;;1.08;;
59756;SDS011;45631;51.962;5.974;2022-09-03T10:23:10;4.25;;;1.38;;
59756;SDS011;45631;51.962;5.974;2022-09-03T10:25:46;5.47;;;1.30;;
59756;SDS011;45631;51.962;5.974;2022-09-03T10:28:26;4.38;;;1.20;;
59756;SDS011;45631;51.962;5.974;2022-09-03T10:31:05;3.38;;;1.30;;
59756;SDS011;45631;51.962;5.974;2022-09-03T10:33:47;2.63;;;1.13;;
59756;SDS011;45631;51.962;5.974;2022-09-03T10:36:23;3.90;;;1.50;;
59756;SDS011;45631;51.962;5.974;2022-09-03T10:38:57;3.85;;;1.60;;
59756;SDS011;45631;51.962;5.974;2022-09-03T10:41:36;3.90;;;1.20;;
59756;SDS011;45631;51.962;5.974;2022-09-03T10:44:23;2.67;;;1.27;;
59756;SDS011;45631;51.962;5.974;2022-09-03T10:47:10;5.00;;;1.20;;
59756;SDS011;45631;51.962;5.974;2022-09-03T10:49:51;2.20;;;1.05;;
59756;SDS011;45631;51.962;5.974;2022-09-03T10:52:30;3.08;;;1.23;;
59756;SDS011;45631;51.962;5.974;2022-09-03T10:55:16;4.15;;;1.35;;
59756;SDS011;45631;51.962;5.974;2022-09-03T10:57:50;3.88;;;1.10;;
59756;SDS011;45631;51.962;5.974;2022-09-03T11:00:31;2.80;;;1.35;;
59756;SDS011;45631;51.962;5.974;2022-09-03T11:06:12;2.53;;;1.20;;
59756;SDS011;45631;51.962;5.974;2022-09-03T11:08:47;3.47;;;1.60;;
59756;SDS011;45631;51.962;5.974;2022-09-03T11:11:22;2.88;;;1.40;;
59756;SDS011;45631;51.962;5.974;2022-09-03T11:13:56;4.05;;;1.40;;
59756;SDS011;45631;51.962;5.974;2022-09-03T11:16:30;4.53;;;1.30;;
59756;SDS011;45631;51.962;5.974;2022-09-03T11:19:01;3.70;;;1.15;;
59756;SDS011;45631;51.962;5.974;2022-09-03T11:21:34;4.10;;;1.20;;
59756;SDS011;45631;51.962;5.974;2022-09-03T11:24:09;6.03;;;1.33;;
59756;SDS011;45631;51.962;5.974;2022-09-03T11:26:42;3.30;;;1.20;;
59756;SDS011;45631;51.962;5.974;2022-09-03T11:29:15;4.38;;;1.08;;
59756;SDS011;45631;51.962;5.974;2022-09-03T11:31:52;2.97;;;1.23;;
59756;SDS011;45631;51.962;5.974;2022-09-03T11:34:28;3.65;;;1.20;;
59756;SDS011;45631;51.962;5.974;2022-09-03T11:37:15;4.50;;;1.20;;
59756;SDS011;45631;51.962;5.974;2022-09-03T11:39:51;3.70;;;1.65;;
59756;SDS011;45631;51.962;5.974;2022-09-03T11:42:29;4.82;;;1.30;;
59756;SDS011;45631;51.962;5.974;2022-09-03T11:48:02;5.25;;;1.30;;
59756;SDS011;45631;51.962;5.974;2022-09-03T11:50:51;4.22;;;1.30;;
59756;SDS011;45631;51.962;5.974;2022-09-03T11:53:23;5.25;;;1.27;;
59756;SDS011;45631;51.962;5.974;2022-09-03T11:55:54;3.20;;;1.42;;
59756;SDS011;45631;51.962;5.974;2022-09-03T11:58:27;7.00;;;1.38;;
59756;SDS011;45631;51.962;5.974;2022-09-03T12:03:29;3.80;;;1.30;;
59756;SDS011;45631;51.962;5.974;2022-09-03T12:09:22;3.67;;;1.20;;
59756;SDS011;45631;51.962;5.974;2022-09-03T12:12:25;5.63;;;1.30;;
59756;SDS011;45631;51.962;5.974;2022-09-03T12:15:04;3.97;;;1.30;;
59756;SDS011;45631;51.962;5.974;2022-09-03T12:17:43;6.13;;;1.38;;
59756;SDS011;45631;51.962;5.974;2022-09-03T12:20:39;4.88;;;1.50;;
59756;SDS011;45631;51.962;5.974;2022-09-03T12:23:09;7.30;;;1.33;;
59756;SDS011;45631;51.962;5.974;2022-09-03T12:25:42;4.72;;;1.40;;
59756;SDS011;45631;51.962;5.974;2022-09-03T12:28:15;4.35;;;1.30;;
59756;SDS011;45631;51.962;5.974;2022-09-03T12:30:47;3.33;;;1.35;;
59756;SDS011;45631;51.962;5.974;2022-09-03T12:33:19;3.83;;;1.50;;
59756;SDS011;45631;51.962;5.974;2022-09-03T12:35:54;5.82;;;1.40;;
59756;SDS011;45631;51.962;5.974;2022-09-03T12:38:25;6.13;;;1.50;;
59756;SDS011;45631;51.962;5.974;2022-09-03T12:40:56;4.03;;;1.30;;
59756;SDS011;45631;51.962;5.974;2022-09-03T12:43:48;2.13;;;1.30;;
59756;SDS011;45631;51.962;5.974;2022-09-03T12:46:21;5.53;;;1.50;;
59756;SDS011;45631;51.962;5.974;2022-09-03T12:48:59;7.15;;;1.50;;
59756;SDS011;45631;51.962;5.974;2022-09-03T12:51:50;5.07;;;1.70;;
59756;SDS011;45631;51.962;5.974;2022-09-03T12:54:32;4.03;;;1.60;;
59756;SDS011;45631;51.962;5.974;2022-09-03T12:57:04;5.20;;;1.60;;
59756;SDS011;45631;51.962;5.974;2022-09-03T12:59:33;4.88;;;1.58;;
59756;SDS011;45631;51.962;5.974;2022-09-03T13:02:05;4.07;;;1.50;;
59756;SDS011;45631;51.962;5.974;2022-09-03T13:04:43;3.60;;;1.50;;
59756;SDS011;45631;51.962;5.974;2022-09-03T13:07:13;8.70;;;1.60;;
59756;SDS011;45631;51.962;5.974;2022-09-03T13:09:50;4.20;;;1.60;;
59756;SDS011;45631;51.962;5.974;2022-09-03T13:12:21;4.15;;;1.42;;
59756;SDS011;45631;51.962;5.974;2022-09-03T13:15:03;7.13;;;1.80;;
59756;SDS011;45631;51.962;5.974;2022-09-03T13:17:46;2.70;;;1.30;;
59756;SDS011;45631;51.962;5.974;2022-09-03T13:20:36;4.38;;;1.60;;
59756;SDS011;45631;51.962;5.974;2022-09-03T13:23:21;4.40;;;1.38;;
59756;SDS011;45631;51.962;5.974;2022-09-03T13:26:16;7.68;;;1.90;;
59756;SDS011;45631;51.962;5.974;2022-09-03T13:28:57;4.40;;;1.70;;
59756;SDS011;45631;51.962;5.974;2022-09-03T13:31:43;5.47;;;1.50;;
59756;SDS011;45631;51.962;5.974;2022-09-03T13:34:19;5.38;;;1.58;;
59756;SDS011;45631;51.962;5.974;2022-09-03T13:36:54;5.10;;;1.73;;
59756;SDS011;45631;51.962;5.974;2022-09-03T13:39:27;5.53;;;1.65;;
59756;SDS011;45631;51.962;5.974;2022-09-03T13:42:01;3.63;;;1.40;;
59756;SDS011;45631;51.962;5.974;2022-09-03T13:44:37;5.28;;;2.17;;
59756;SDS011;45631;51.962;5.974;2022-09-03T13:47:15;2.67;;;1.50;;
59756;SDS011;45631;51.962;5.974;2022-09-03T13:49:56;5.45;;;1.75;;
59756;SDS011;45631;51.962;5.974;2022-09-03T13:52:49;2.85;;;1.55;;
59756;SDS011;45631;51.962;5.974;2022-09-03T13:55:26;4.65;;;1.85;;
59756;SDS011;45631;51.962;5.974;2022-09-03T13:58:04;6.18;;;2.15;;
59756;SDS011;45631;51.962;5.974;2022-09-03T14:00:41;3.97;;;1.48;;
59756;SDS011;45631;51.962;5.974;2022-09-03T14:03:16;6.10;;;1.60;;
59756;SDS011;45631;51.962;5.974;2022-09-03T14:06:00;10.13;;;1.98;;
59756;SDS011;45631;51.962;5.974;2022-09-03T14:08:34;4.18;;;1.90;;
59756;SDS011;45631;51.962;5.974;2022-09-03T14:11:19;4.75;;;2.00;;
59756;SDS011;45631;51.962;5.974;2022-09-03T14:13:56;5.20;;;1.80;;
59756;SDS011;45631;51.962;5.974;2022-09-03T14:16:36;4.63;;;1.80;;
59756;SDS011;45631;51.962;5.974;2022-09-03T14:19:10;3.42;;;1.60;;
59756;SDS011;45631;51.962;5.974;2022-09-03T14:21:44;4.38;;;1.60;;
59756;SDS011;45631;51.962;5.974;2022-09-03T14:24:19;5.90;;;1.70;;
59756;SDS011;45631;51.962;5.974;2022-09-03T14:26:52;5.97;;;1.70;;
59756;SDS011;45631;51.962;5.974;2022-09-03T14:29:23;4.57;;;1.70;;
59756;SDS011;45631;51.962;5.974;2022-09-03T14:47:27;4.77;;;1.67;;
59756;SDS011;45631;51.962;5.974;2022-09-03T14:50:16;5.13;;;1.70;;
59756;SDS011;45631;51.962;5.974;2022-09-03T14:52:58;5.68;;;1.75;;
59756;SDS011;45631;51.962;5.974;2022-09-03T14:55:41;4.28;;;1.60;;
59756;SDS011;45631;51.962;5.974;2022-09-03T14:58:29;4.72;;;1.63;;
59756;SDS011;45631;51.962;5.974;2022-09-03T15:01:14;4.90;;;1.60;;
59756;SDS011;45631;51.962;5.974;2022-09-03T15:04:07;5.38;;;1.73;;
59756;SDS011;45631;51.962;5.974;2022-09-03T15:07:02;6.55;;;1.83;;
59756;SDS011;45631;51.962;5.974;2022-09-03T15:09:44;5.03;;;1.58;;
59756;SDS011;45631;51.962;5.974;2022-09-03T15:12:20;4.00;;;1.83;;
59756;SDS011;45631;51.962;5.974;2022-09-03T15:14:55;3.28;;;1.60;;
59756;SDS011;45631;51.962;5.974;2022-09-03T15:17:28;6.95;;;1.85;;
59756;SDS011;45631;51.962;5.974;2022-09-03T15:20:13;4.20;;;1.63;;
59756;SDS011;45631;51.962;5.974;2022-09-03T15:23:00;4.30;;;1.83;;
59756;SDS011;45631;51.962;5.974;2022-09-03T15:25:54;4.22;;;1.80;;
59756;SDS011;45631;51.962;5.974;2022-09-03T15:28:38;5.30;;;1.95;;
59756;SDS011;45631;51.962;5.974;2022-09-03T15:31:18;4.30;;;1.80;;
59756;SDS011;45631;51.962;5.974;2022-09-03T15:33:55;8.35;;;1.88;;
59756;SDS011;45631;51.962;5.974;2022-09-03T15:36:33;4.25;;;2.30;;
59756;SDS011;45631;51.962;5.974;2022-09-03T15:39:05;4.15;;;1.70;;
59756;SDS011;45631;51.962;5.974;2022-09-03T15:41:39;4.20;;;1.60;;
59756;SDS011;45631;51.962;5.974;2022-09-03T15:44:11;4.72;;;1.83;;
59756;SDS011;45631;51.962;5.974;2022-09-03T15:46:52;4.72;;;1.83;;
59756;SDS011;45631;51.962;5.974;2022-09-03T15:49:32;3.30;;;1.48;;
59756;SDS011;45631;51.962;5.974;2022-09-03T15:52:18;3.90;;;1.75;;
59756;SDS011;45631;51.962;5.974;2022-09-03T15:54:58;5.47;;;2.30;;
59756;SDS011;45631;51.962;5.974;2022-09-03T15:57:34;3.78;;;1.85;;
59756;SDS011;45631;51.962;5.974;2022-09-03T16:00:09;3.78;;;1.80;;
59756;SDS011;45631;51.962;5.974;2022-09-03T16:02:41;3.03;;;1.70;;
59756;SDS011;45631;51.962;5.974;2022-09-03T16:05:17;3.67;;;1.90;;
59756;SDS011;45631;51.962;5.974;2022-09-03T16:10:46;3.70;;;1.65;;